sensor_id;sensor_type;location;lat;lon;timestamp;noise_LAeq;noise_LA_min;noise_LA_max;noise_LA01;noise_LA95
83034;Laerm;72848;52.216;5.616;2023-12-20T00:00:40;38.67;30.81;48.24;;
83034;Laerm;72848;52.216;5.616;2023-12-20T00:03:08;38.73;29.99;48.99;;
83034;Laerm;72848;52.216;5.616;2023-12-20T00:05:37;38.61;29.87;52.90;;
83034;Laerm;72848;52.216;5.616;2023-12-20T00:08:05;33.47;29.83;47.01;;
83034;Laerm;72848;52.216;5.616;2023-12-20T00:10:36;36.18;30.29;45.34;;
83034;Laerm;72848;52.216;5.616;2023-12-20T00:13:05;34.19;29.87;45.35;;
83034;Laerm;72848;52.216;5.616;2023-12-20T00:15:33;35.69;30.51;44.53;;
83034;Laerm;72848;52.216;5.616;2023-12-20T00:18:02;34.65;29.70;45.48;;
83034;Laerm;72848;52.216;5.616;2023-12-20T00:20:30;34.00;29.99;43.64;;
83034;Laerm;72848;52.216;5.616;2023-12-20T00:22:58;35.36;30.24;44.45;;
83034;Laerm;72848;52.216;5.616;2023-12-20T00:25:27;35.87;31.52;49.21;;
83034;Laerm;72848;52.216;5.616;2023-12-20T00:27:58;34.09;30.17;46.49;;
83034;Laerm;72848;52.216;5.616;2023-12-20T00:30:26;33.43;29.75;43.03;;
83034;Laerm;72848;52.216;5.616;2023-12-20T00:32:55;34.27;29.61;47.36;;
83034;Laerm;72848;52.216;5.616;2023-12-20T00:35:23;33.33;29.57;42.18;;
83034;Laerm;72848;52.216;5.616;2023-12-20T00:37:52;35.06;30.05;45.06;;
83034;Laerm;72848;52.216;5.616;2023-12-20T00:40:20;36.50;29.74;47.99;;
83034;Laerm;72848;52.216;5.616;2023-12-20T00:42:48;34.16;29.91;43.66;;
83034;Laerm;72848;52.216;5.616;2023-12-20T00:45:20;33.65;29.70;41.28;;
83034;Laerm;72848;52.216;5.616;2023-12-20T00:47:48;33.28;29.70;43.02;;
83034;Laerm;72848;52.216;5.616;2023-12-20T00:50:17;34.98;30.17;42.12;;
83034;Laerm;72848;52.216;5.616;2023-12-20T00:52:45;35.03;29.91;44.19;;
83034;Laerm;72848;52.216;5.616;2023-12-20T00:55:13;34.42;30.23;47.81;;
83034;Laerm;72848;52.216;5.616;2023-12-20T00:57:42;34.80;30.06;41.80;;
83034;Laerm;72848;52.216;5.616;2023-12-20T01:00:10;35.17;30.10;49.95;;
83034;Laerm;72848;52.216;5.616;2023-12-20T01:02:42;34.73;30.26;45.18;;
83034;Laerm;72848;52.216;5.616;2023-12-20T01:05:10;35.57;30.69;53.88;;
83034;Laerm;72848;52.216;5.616;2023-12-20T01:07:38;38.28;32.10;46.65;;
83034;Laerm;72848;52.216;5.616;2023-12-20T01:10:07;37.56;30.28;47.06;;
83034;Laerm;72848;52.216;5.616;2023-12-20T01:12:35;34.31;29.75;49.39;;
83034;Laerm;72848;52.216;5.616;2023-12-20T01:15:04;34.12;30.20;41.35;;
83034;Laerm;72848;52.216;5.616;2023-12-20T01:17:33;38.17;30.47;46.59;;
83034;Laerm;72848;52.216;5.616;2023-12-20T01:20:04;34.02;29.98;41.32;;
83034;Laerm;72848;52.216;5.616;2023-12-20T01:22:33;33.81;29.72;41.60;;
83034;Laerm;72848;52.216;5.616;2023-12-20T01:25:01;37.31;30.64;46.78;;
83034;Laerm;72848;52.216;5.616;2023-12-20T01:27:30;40.18;31.20;49.74;;
83034;Laerm;72848;52.216;5.616;2023-12-20T01:29:58;35.90;31.40;45.83;;
83034;Laerm;72848;52.216;5.616;2023-12-20T01:32:26;36.07;29.81;45.06;;
83034;Laerm;72848;52.216;5.616;2023-12-20T01:34:54;35.58;29.94;43.05;;
83034;Laerm;72848;52.216;5.616;2023-12-20T01:37:26;34.67;30.11;41.34;;
83034;Laerm;72848;52.216;5.616;2023-12-20T01:39:54;34.51;29.95;47.59;;
83034;Laerm;72848;52.216;5.616;2023-12-20T01:42:23;33.98;29.58;43.10;;
83034;Laerm;72848;52.216;5.616;2023-12-20T01:44:51;40.02;31.74;51.00;;
83034;Laerm;72848;52.216;5.616;2023-12-20T01:47:19;35.06;30.06;49.52;;
83034;Laerm;72848;52.216;5.616;2023-12-20T01:49:48;36.14;30.19;47.74;;
83034;Laerm;72848;52.216;5.616;2023-12-20T01:52:16;37.14;30.53;47.03;;
83034;Laerm;72848;52.216;5.616;2023-12-20T01:54:47;33.70;29.93;41.87;;
83034;Laerm;72848;52.216;5.616;2023-12-20T01:57:16;34.82;30.13;43.30;;
83034;Laerm;72848;52.216;5.616;2023-12-20T01:59:44;36.59;30.23;43.89;;
83034;Laerm;72848;52.216;5.616;2023-12-20T02:02:13;32.95;29.48;41.55;;
83034;Laerm;72848;52.216;5.616;2023-12-20T02:04:42;33.69;29.72;46.78;;
83034;Laerm;72848;52.216;5.616;2023-12-20T02:07:10;33.86;30.08;48.77;;
83034;Laerm;72848;52.216;5.616;2023-12-20T02:09:39;34.14;30.34;42.38;;
83034;Laerm;72848;52.216;5.616;2023-12-20T02:12:11;33.73;30.31;42.82;;
83034;Laerm;72848;52.216;5.616;2023-12-20T02:14:39;35.41;30.27;45.47;;
83034;Laerm;72848;52.216;5.616;2023-12-20T02:17:07;35.89;30.76;42.39;;
83034;Laerm;72848;52.216;5.616;2023-12-20T02:19:36;38.97;30.74;50.50;;
83034;Laerm;72848;52.216;5.616;2023-12-20T02:22:11;34.71;30.28;48.40;;
83034;Laerm;72848;52.216;5.616;2023-12-20T02:24:39;38.09;31.17;46.65;;
83034;Laerm;72848;52.216;5.616;2023-12-20T02:27:07;34.17;30.20;44.66;;
83034;Laerm;72848;52.216;5.616;2023-12-20T02:29:36;33.35;29.64;43.49;;
83034;Laerm;72848;52.216;5.616;2023-12-20T02:32:05;35.13;30.50;46.11;;
83034;Laerm;72848;52.216;5.616;2023-12-20T02:34:33;35.47;30.32;42.21;;
83034;Laerm;72848;52.216;5.616;2023-12-20T02:37:01;36.45;31.17;43.88;;
83034;Laerm;72848;52.216;5.616;2023-12-20T02:39:32;38.34;31.04;47.83;;
83034;Laerm;72848;52.216;5.616;2023-12-20T02:42:01;34.88;30.18;43.43;;
83034;Laerm;72848;52.216;5.616;2023-12-20T02:44:29;33.53;29.73;41.36;;
83034;Laerm;72848;52.216;5.616;2023-12-20T02:46:57;32.59;29.73;41.12;;
83034;Laerm;72848;52.216;5.616;2023-12-20T02:49:26;33.02;30.03;41.84;;
83034;Laerm;72848;52.216;5.616;2023-12-20T02:52:00;33.87;30.06;43.56;;
83034;Laerm;72848;52.216;5.616;2023-12-20T02:54:28;33.85;30.03;41.75;;
83034;Laerm;72848;52.216;5.616;2023-12-20T02:56:59;34.95;30.45;42.70;;
83034;Laerm;72848;52.216;5.616;2023-12-20T02:59:28;35.02;30.86;41.96;;
83034;Laerm;72848;52.216;5.616;2023-12-20T03:01:56;39.96;31.04;52.22;;
83034;Laerm;72848;52.216;5.616;2023-12-20T03:04:24;39.03;30.37;51.30;;
83034;Laerm;72848;52.216;5.616;2023-12-20T03:06:52;36.22;32.13;43.69;;
83034;Laerm;72848;52.216;5.616;2023-12-20T03:09:21;35.97;30.26;45.33;;
83034;Laerm;72848;52.216;5.616;2023-12-20T03:11:49;36.58;30.58;46.10;;
83034;Laerm;72848;52.216;5.616;2023-12-20T03:14:21;36.47;31.02;47.95;;
83034;Laerm;72848;52.216;5.616;2023-12-20T03:16:50;35.34;30.62;41.89;;
83034;Laerm;72848;52.216;5.616;2023-12-20T03:19:18;33.63;30.18;41.34;;
83034;Laerm;72848;52.216;5.616;2023-12-20T03:21:46;35.78;30.33;46.49;;
83034;Laerm;72848;52.216;5.616;2023-12-20T03:24:15;37.80;30.90;45.76;;
83034;Laerm;72848;52.216;5.616;2023-12-20T03:26:43;36.72;31.40;44.50;;
83034;Laerm;72848;52.216;5.616;2023-12-20T03:29:11;40.10;34.10;48.67;;
83034;Laerm;72848;52.216;5.616;2023-12-20T03:31:42;41.60;33.85;53.40;;
83034;Laerm;72848;52.216;5.616;2023-12-20T03:34:11;34.62;31.42;44.67;;
83034;Laerm;72848;52.216;5.616;2023-12-20T03:36:39;36.12;31.23;46.77;;
83034;Laerm;72848;52.216;5.616;2023-12-20T03:39:08;36.98;31.32;54.07;;
83034;Laerm;72848;52.216;5.616;2023-12-20T03:41:36;37.12;31.68;44.05;;
83034;Laerm;72848;52.216;5.616;2023-12-20T03:44:04;34.58;30.35;41.82;;
83034;Laerm;72848;52.216;5.616;2023-12-20T03:46:33;34.90;31.19;42.17;;
83034;Laerm;72848;52.216;5.616;2023-12-20T03:49:04;40.82;33.21;49.96;;
83034;Laerm;72848;52.216;5.616;2023-12-20T03:51:32;37.93;33.83;44.48;;
83034;Laerm;72848;52.216;5.616;2023-12-20T03:54:00;35.96;30.87;44.93;;
83034;Laerm;72848;52.216;5.616;2023-12-20T03:56:29;37.66;31.72;45.63;;
83034;Laerm;72848;52.216;5.616;2023-12-20T03:58:57;36.43;32.03;43.07;;
83034;Laerm;72848;52.216;5.616;2023-12-20T04:01:25;38.32;32.32;50.93;;
83034;Laerm;72848;52.216;5.616;2023-12-20T04:03:54;41.17;34.28;50.75;;
83034;Laerm;72848;52.216;5.616;2023-12-20T04:06:25;39.06;32.99;46.50;;
83034;Laerm;72848;52.216;5.616;2023-12-20T04:08:53;38.22;32.41;47.33;;
83034;Laerm;72848;52.216;5.616;2023-12-20T04:11:21;38.46;32.58;47.11;;
83034;Laerm;72848;52.216;5.616;2023-12-20T04:13:50;41.17;35.36;47.80;;
83034;Laerm;72848;52.216;5.616;2023-12-20T04:16:18;42.15;36.54;47.47;;
83034;Laerm;72848;52.216;5.616;2023-12-20T04:18:46;40.06;35.20;45.82;;
83034;Laerm;72848;52.216;5.616;2023-12-20T04:21:15;39.20;34.24;51.49;;
83034;Laerm;72848;52.216;5.616;2023-12-20T04:23:46;39.26;34.62;44.54;;
83034;Laerm;72848;52.216;5.616;2023-12-20T04:26:14;41.23;34.59;56.04;;
83034;Laerm;72848;52.216;5.616;2023-12-20T04:28:42;40.68;35.33;58.51;;
83034;Laerm;72848;52.216;5.616;2023-12-20T04:31:11;38.93;34.41;45.79;;
83034;Laerm;72848;52.216;5.616;2023-12-20T04:33:39;39.81;34.70;47.27;;
83034;Laerm;72848;52.216;5.616;2023-12-20T04:36:08;43.44;37.97;53.95;;
83034;Laerm;72848;52.216;5.616;2023-12-20T04:38:36;40.95;36.26;46.56;;
83034;Laerm;72848;52.216;5.616;2023-12-20T04:41:07;42.83;37.36;49.79;;
83034;Laerm;72848;52.216;5.616;2023-12-20T04:43:35;41.97;35.56;55.21;;
83034;Laerm;72848;52.216;5.616;2023-12-20T04:46:04;42.19;37.52;50.29;;
83034;Laerm;72848;52.216;5.616;2023-12-20T04:48:32;42.95;37.67;54.19;;
83034;Laerm;72848;52.216;5.616;2023-12-20T04:51:00;42.79;38.16;51.32;;
83034;Laerm;72848;52.216;5.616;2023-12-20T04:53:29;43.61;38.73;54.88;;
83034;Laerm;72848;52.216;5.616;2023-12-20T04:55:57;42.75;38.47;49.63;;
83034;Laerm;72848;52.216;5.616;2023-12-20T04:58:28;40.11;34.98;45.49;;
83034;Laerm;72848;52.216;5.616;2023-12-20T05:00:56;41.97;38.71;47.72;;
83034;Laerm;72848;52.216;5.616;2023-12-20T05:03:25;42.49;37.36;52.46;;
83034;Laerm;72848;52.216;5.616;2023-12-20T05:05:53;42.26;37.62;48.11;;
83034;Laerm;72848;52.216;5.616;2023-12-20T05:08:22;43.06;38.02;60.60;;
83034;Laerm;72848;52.216;5.616;2023-12-20T05:10:50;43.56;38.86;55.91;;
83034;Laerm;72848;52.216;5.616;2023-12-20T05:13:19;42.81;38.86;51.21;;
83034;Laerm;72848;52.216;5.616;2023-12-20T05:15:50;43.51;39.90;50.71;;
83034;Laerm;72848;52.216;5.616;2023-12-20T05:18:18;45.41;39.88;61.50;;
83034;Laerm;72848;52.216;5.616;2023-12-20T05:20:46;44.77;40.88;52.93;;
83034;Laerm;72848;52.216;5.616;2023-12-20T05:23:15;45.42;40.24;60.22;;
83034;Laerm;72848;52.216;5.616;2023-12-20T05:25:43;44.76;39.54;57.14;;
83034;Laerm;72848;52.216;5.616;2023-12-20T05:28:12;44.49;39.47;60.60;;
83034;Laerm;72848;52.216;5.616;2023-12-20T05:30:40;44.96;40.21;54.28;;
83034;Laerm;72848;52.216;5.616;2023-12-20T05:33:11;46.02;40.23;65.03;;
83034;Laerm;72848;52.216;5.616;2023-12-20T05:35:39;43.60;39.47;49.44;;
83034;Laerm;72848;52.216;5.616;2023-12-20T05:38:08;44.07;39.40;48.91;;
83034;Laerm;72848;52.216;5.616;2023-12-20T05:40:36;43.74;39.61;52.31;;
83034;Laerm;72848;52.216;5.616;2023-12-20T05:43:05;43.38;37.06;50.34;;
83034;Laerm;72848;52.216;5.616;2023-12-20T05:45:33;44.41;40.14;53.22;;
83034;Laerm;72848;52.216;5.616;2023-12-20T05:48:01;43.51;40.42;48.50;;
83034;Laerm;72848;52.216;5.616;2023-12-20T05:50:32;44.56;40.64;49.07;;
83034;Laerm;72848;52.216;5.616;2023-12-20T05:53:01;43.95;39.95;51.80;;
83034;Laerm;72848;52.216;5.616;2023-12-20T05:55:29;43.28;40.56;49.76;;
83034;Laerm;72848;52.216;5.616;2023-12-20T05:57:57;44.32;39.79;50.04;;
83034;Laerm;72848;52.216;5.616;2023-12-20T06:00:26;45.77;41.50;55.54;;
83034;Laerm;72848;52.216;5.616;2023-12-20T06:02:54;43.90;40.86;52.54;;
83034;Laerm;72848;52.216;5.616;2023-12-20T06:05:22;45.50;40.55;57.62;;
83034;Laerm;72848;52.216;5.616;2023-12-20T06:07:53;43.72;40.06;52.46;;
83034;Laerm;72848;52.216;5.616;2023-12-20T06:10:22;44.03;40.67;55.02;;
83034;Laerm;72848;52.216;5.616;2023-12-20T06:12:50;44.22;39.73;50.88;;
83034;Laerm;72848;52.216;5.616;2023-12-20T06:15:18;44.95;41.01;50.81;;
83034;Laerm;72848;52.216;5.616;2023-12-20T06:17:47;45.38;41.84;61.82;;
83034;Laerm;72848;52.216;5.616;2023-12-20T06:20:15;45.05;39.51;56.51;;
83034;Laerm;72848;52.216;5.616;2023-12-20T06:22:43;43.62;40.12;52.18;;
83034;Laerm;72848;52.216;5.616;2023-12-20T06:25:14;44.96;40.74;55.07;;
83034;Laerm;72848;52.216;5.616;2023-12-20T06:27:43;44.84;40.90;52.89;;
83034;Laerm;72848;52.216;5.616;2023-12-20T06:30:11;45.35;40.26;61.61;;
83034;Laerm;72848;52.216;5.616;2023-12-20T06:32:40;45.13;41.30;50.75;;
83034;Laerm;72848;52.216;5.616;2023-12-20T06:35:08;45.50;41.60;57.10;;
83034;Laerm;72848;52.216;5.616;2023-12-20T06:37:37;48.52;42.12;70.09;;
83034;Laerm;72848;52.216;5.616;2023-12-20T06:40:06;47.41;43.60;56.63;;
83034;Laerm;72848;52.216;5.616;2023-12-20T06:42:37;48.60;42.39;70.25;;
83034;Laerm;72848;52.216;5.616;2023-12-20T06:45:06;46.03;42.72;57.36;;
83034;Laerm;72848;52.216;5.616;2023-12-20T06:47:34;45.47;42.46;52.94;;
83034;Laerm;72848;52.216;5.616;2023-12-20T06:50:03;47.49;41.42;66.72;;
83034;Laerm;72848;52.216;5.616;2023-12-20T06:52:31;43.64;40.04;48.93;;
83034;Laerm;72848;52.216;5.616;2023-12-20T06:54:59;45.61;41.86;53.82;;
83034;Laerm;72848;52.216;5.616;2023-12-20T06:57:28;45.53;41.92;60.02;;
83034;Laerm;72848;52.216;5.616;2023-12-20T07:00:00;45.62;42.06;63.71;;
83034;Laerm;72848;52.216;5.616;2023-12-20T07:02:28;45.83;41.75;58.93;;
83034;Laerm;72848;52.216;5.616;2023-12-20T07:04:56;44.99;42.12;56.82;;
83034;Laerm;72848;52.216;5.616;2023-12-20T07:07:25;45.95;42.01;55.47;;
83034;Laerm;72848;52.216;5.616;2023-12-20T07:09:53;46.42;42.11;56.86;;
83034;Laerm;72848;52.216;5.616;2023-12-20T07:12:21;48.50;42.07;65.80;;
83034;Laerm;72848;52.216;5.616;2023-12-20T07:14:50;48.20;40.92;69.20;;
83034;Laerm;72848;52.216;5.616;2023-12-20T07:17:20;45.86;40.05;59.22;;
83034;Laerm;72848;52.216;5.616;2023-12-20T07:19:49;44.97;42.67;49.66;;
83034;Laerm;72848;52.216;5.616;2023-12-20T07:22:17;46.60;40.85;60.23;;
83034;Laerm;72848;52.216;5.616;2023-12-20T07:24:46;45.94;42.04;56.96;;
83034;Laerm;72848;52.216;5.616;2023-12-20T07:27:14;46.50;41.53;64.61;;
83034;Laerm;72848;52.216;5.616;2023-12-20T07:29:42;45.88;42.77;54.93;;
83034;Laerm;72848;52.216;5.616;2023-12-20T07:32:11;45.39;42.74;49.35;;
83034;Laerm;72848;52.216;5.616;2023-12-20T07:34:42;51.82;42.58;69.14;;
83034;Laerm;72848;52.216;5.616;2023-12-20T07:37:10;45.99;43.03;60.96;;
83034;Laerm;72848;52.216;5.616;2023-12-20T07:39:39;46.11;43.07;59.27;;
83034;Laerm;72848;52.216;5.616;2023-12-20T07:42:07;45.16;41.10;49.16;;
83034;Laerm;72848;52.216;5.616;2023-12-20T07:44:36;47.23;43.42;63.92;;
83034;Laerm;72848;52.216;5.616;2023-12-20T07:47:04;46.96;42.23;60.03;;
83034;Laerm;72848;52.216;5.616;2023-12-20T07:49:33;47.00;41.24;65.53;;
83034;Laerm;72848;52.216;5.616;2023-12-20T07:52:04;47.31;41.66;67.62;;
83034;Laerm;72848;52.216;5.616;2023-12-20T07:54:32;51.19;43.78;67.21;;
83034;Laerm;72848;52.216;5.616;2023-12-20T07:57:01;46.32;41.76;65.19;;
83034;Laerm;72848;52.216;5.616;2023-12-20T07:59:29;47.24;41.72;66.25;;
83034;Laerm;72848;52.216;5.616;2023-12-20T08:01:57;45.11;39.56;64.40;;
83034;Laerm;72848;52.216;5.616;2023-12-20T08:04:26;46.41;42.75;55.81;;
83034;Laerm;72848;52.216;5.616;2023-12-20T08:06:54;48.27;43.57;66.25;;
83034;Laerm;72848;52.216;5.616;2023-12-20T08:09:25;50.90;42.00;73.90;;
83034;Laerm;72848;52.216;5.616;2023-12-20T08:11:54;47.62;41.68;62.60;;
83034;Laerm;72848;52.216;5.616;2023-12-20T08:14:22;47.15;40.22;66.70;;
83034;Laerm;72848;52.216;5.616;2023-12-20T08:16:50;46.18;40.97;61.44;;
83034;Laerm;72848;52.216;5.616;2023-12-20T08:19:19;45.88;42.13;54.59;;
83034;Laerm;72848;52.216;5.616;2023-12-20T08:21:47;44.08;39.67;58.02;;
83034;Laerm;72848;52.216;5.616;2023-12-20T08:24:15;46.37;42.24;52.84;;
83034;Laerm;72848;52.216;5.616;2023-12-20T08:26:46;46.00;41.01;54.69;;
83034;Laerm;72848;52.216;5.616;2023-12-20T08:29:15;45.77;41.91;61.55;;
83034;Laerm;72848;52.216;5.616;2023-12-20T08:31:43;43.66;39.80;53.84;;
83034;Laerm;72848;52.216;5.616;2023-12-20T08:34:11;45.81;40.57;62.37;;
83034;Laerm;72848;52.216;5.616;2023-12-20T08:36:40;47.19;40.59;61.39;;
83034;Laerm;72848;52.216;5.616;2023-12-20T08:39:08;45.56;40.56;60.84;;
83034;Laerm;72848;52.216;5.616;2023-12-20T08:41:36;46.96;42.12;58.80;;
83034;Laerm;72848;52.216;5.616;2023-12-20T08:44:07;48.28;41.98;66.40;;
83034;Laerm;72848;52.216;5.616;2023-12-20T08:46:36;46.53;42.89;60.44;;
83034;Laerm;72848;52.216;5.616;2023-12-20T08:49:04;44.77;41.31;53.87;;
83034;Laerm;72848;52.216;5.616;2023-12-20T08:51:32;48.07;42.66;57.92;;
83034;Laerm;72848;52.216;5.616;2023-12-20T08:54:01;53.41;46.06;75.55;;
83034;Laerm;72848;52.216;5.616;2023-12-20T08:56:29;50.70;45.52;56.60;;
83034;Laerm;72848;52.216;5.616;2023-12-20T08:58:57;50.90;43.87;67.91;;
83034;Laerm;72848;52.216;5.616;2023-12-20T09:01:28;49.00;44.49;55.07;;
83034;Laerm;72848;52.216;5.616;2023-12-20T09:03:57;49.08;44.11;56.60;;
83034;Laerm;72848;52.216;5.616;2023-12-20T09:06:25;49.31;45.81;53.87;;
83034;Laerm;72848;52.216;5.616;2023-12-20T09:08:53;47.85;41.19;63.50;;
83034;Laerm;72848;52.216;5.616;2023-12-20T09:11:22;45.46;41.62;55.52;;
83034;Laerm;72848;52.216;5.616;2023-12-20T09:13:50;45.72;42.24;59.56;;
83034;Laerm;72848;52.216;5.616;2023-12-20T09:16:18;46.95;41.37;61.89;;
83034;Laerm;72848;52.216;5.616;2023-12-20T09:18:49;46.15;42.09;58.36;;
83034;Laerm;72848;52.216;5.616;2023-12-20T09:21:18;46.31;40.12;62.89;;
83034;Laerm;72848;52.216;5.616;2023-12-20T09:23:46;44.77;40.84;55.86;;
83034;Laerm;72848;52.216;5.616;2023-12-20T09:26:14;44.10;40.82;49.71;;
83034;Laerm;72848;52.216;5.616;2023-12-20T09:28:43;44.39;40.76;49.59;;
83034;Laerm;72848;52.216;5.616;2023-12-20T09:31:11;44.00;40.37;55.53;;
83034;Laerm;72848;52.216;5.616;2023-12-20T09:33:39;44.45;41.80;52.73;;
83034;Laerm;72848;52.216;5.616;2023-12-20T09:36:10;47.15;43.00;55.65;;
83034;Laerm;72848;52.216;5.616;2023-12-20T09:38:39;47.77;41.47;56.14;;
83034;Laerm;72848;52.216;5.616;2023-12-20T09:41:07;44.13;41.10;49.17;;
83034;Laerm;72848;52.216;5.616;2023-12-20T09:43:37;44.52;40.92;62.00;;
83034;Laerm;72848;52.216;5.616;2023-12-20T09:46:06;45.53;41.14;53.00;;
83034;Laerm;72848;52.216;5.616;2023-12-20T09:48:34;44.90;41.59;65.68;;
83034;Laerm;72848;52.216;5.616;2023-12-20T09:51:04;44.30;40.59;50.97;;
83034;Laerm;72848;52.216;5.616;2023-12-20T09:53:35;46.58;41.95;54.06;;
83034;Laerm;72848;52.216;5.616;2023-12-20T09:56:05;45.59;42.45;54.93;;
83034;Laerm;72848;52.216;5.616;2023-12-20T09:58:35;45.60;39.50;54.53;;
83034;Laerm;72848;52.216;5.616;2023-12-20T10:01:04;44.89;40.85;54.16;;
83034;Laerm;72848;52.216;5.616;2023-12-20T10:03:32;46.14;41.34;57.51;;
83034;Laerm;72848;52.216;5.616;2023-12-20T10:06:02;46.21;42.72;52.93;;
83034;Laerm;72848;52.216;5.616;2023-12-20T10:08:30;47.60;41.82;67.77;;
83034;Laerm;72848;52.216;5.616;2023-12-20T10:11:01;46.95;42.32;60.76;;
83034;Laerm;72848;52.216;5.616;2023-12-20T10:13:29;45.55;41.90;58.98;;
83034;Laerm;72848;52.216;5.616;2023-12-20T10:15:58;45.90;42.01;59.32;;
83034;Laerm;72848;52.216;5.616;2023-12-20T10:18:28;46.95;41.31;59.03;;
83034;Laerm;72848;52.216;5.616;2023-12-20T10:20:57;46.17;41.98;56.98;;
83034;Laerm;72848;52.216;5.616;2023-12-20T10:23:25;48.67;40.13;63.52;;
83034;Laerm;72848;52.216;5.616;2023-12-20T10:25:57;47.86;40.22;68.08;;
83034;Laerm;72848;52.216;5.616;2023-12-20T10:28:28;44.64;41.12;57.19;;
83034;Laerm;72848;52.216;5.616;2023-12-20T10:31:00;45.84;41.82;63.34;;
83034;Laerm;72848;52.216;5.616;2023-12-20T10:33:29;51.44;42.30;70.15;;
83034;Laerm;72848;52.216;5.616;2023-12-20T10:35:58;47.69;41.37;60.75;;
83034;Laerm;72848;52.216;5.616;2023-12-20T10:38:26;47.59;42.00;65.18;;
83034;Laerm;72848;52.216;5.616;2023-12-20T10:40:56;46.89;41.74;61.09;;
83034;Laerm;72848;52.216;5.616;2023-12-20T10:43:28;47.33;41.40;58.08;;
83034;Laerm;72848;52.216;5.616;2023-12-20T10:45:56;45.64;41.47;57.66;;
83034;Laerm;72848;52.216;5.616;2023-12-20T10:48:25;45.62;40.21;58.59;;
83034;Laerm;72848;52.216;5.616;2023-12-20T10:50:54;45.71;40.72;55.17;;
83034;Laerm;72848;52.216;5.616;2023-12-20T10:53:23;45.79;40.79;59.89;;
83034;Laerm;72848;52.216;5.616;2023-12-20T10:55:52;45.68;41.00;60.56;;
83034;Laerm;72848;52.216;5.616;2023-12-20T10:58:23;45.61;42.41;59.68;;
83034;Laerm;72848;52.216;5.616;2023-12-20T11:00:56;44.72;40.18;55.23;;
83034;Laerm;72848;52.216;5.616;2023-12-20T11:03:27;45.73;41.52;59.61;;
83034;Laerm;72848;52.216;5.616;2023-12-20T11:05:58;45.94;42.11;52.94;;
83034;Laerm;72848;52.216;5.616;2023-12-20T11:08:28;45.49;41.46;58.13;;
83034;Laerm;72848;52.216;5.616;2023-12-20T11:11:02;44.94;40.61;54.25;;
83034;Laerm;72848;52.216;5.616;2023-12-20T11:13:32;45.53;41.94;60.56;;
83034;Laerm;72848;52.216;5.616;2023-12-20T11:16:05;44.82;40.26;60.10;;
83034;Laerm;72848;52.216;5.616;2023-12-20T11:18:34;44.98;42.11;57.49;;
83034;Laerm;72848;52.216;5.616;2023-12-20T11:21:03;48.89;41.85;63.23;;
83034;Laerm;72848;52.216;5.616;2023-12-20T11:23:32;45.56;41.10;55.23;;
83034;Laerm;72848;52.216;5.616;2023-12-20T11:26:01;47.41;41.06;65.00;;
83034;Laerm;72848;52.216;5.616;2023-12-20T11:28:30;44.74;39.55;55.46;;
83034;Laerm;72848;52.216;5.616;2023-12-20T11:30:58;44.78;41.35;55.71;;
83034;Laerm;72848;52.216;5.616;2023-12-20T11:33:32;47.05;42.99;58.14;;
83034;Laerm;72848;52.216;5.616;2023-12-20T11:36:03;48.63;41.48;67.81;;
83034;Laerm;72848;52.216;5.616;2023-12-20T11:38:49;47.35;42.45;65.22;;
83034;Laerm;72848;52.216;5.616;2023-12-20T11:41:22;47.01;42.93;61.09;;
83034;Laerm;72848;52.216;5.616;2023-12-20T11:43:52;46.54;42.53;60.93;;
83034;Laerm;72848;52.216;5.616;2023-12-20T11:46:20;46.19;42.31;53.50;;
83034;Laerm;72848;52.216;5.616;2023-12-20T11:48:51;46.12;42.98;56.59;;
83034;Laerm;72848;52.216;5.616;2023-12-20T11:51:20;50.30;42.36;60.74;;
83034;Laerm;72848;52.216;5.616;2023-12-20T11:53:51;48.23;41.38;58.70;;
83034;Laerm;72848;52.216;5.616;2023-12-20T11:56:19;48.93;42.68;65.51;;
83034;Laerm;72848;52.216;5.616;2023-12-20T11:58:48;45.06;42.15;52.69;;
83034;Laerm;72848;52.216;5.616;2023-12-20T12:01:16;47.68;43.21;54.49;;
83034;Laerm;72848;52.216;5.616;2023-12-20T12:03:44;49.16;42.41;64.64;;
83034;Laerm;72848;52.216;5.616;2023-12-20T12:06:15;48.37;42.46;57.48;;
83034;Laerm;72848;52.216;5.616;2023-12-20T12:08:43;45.35;41.46;51.43;;
83034;Laerm;72848;52.216;5.616;2023-12-20T12:11:12;46.35;43.32;50.59;;
83034;Laerm;72848;52.216;5.616;2023-12-20T12:13:40;48.73;41.87;65.37;;
83034;Laerm;72848;52.216;5.616;2023-12-20T12:16:09;48.81;43.29;65.94;;
83034;Laerm;72848;52.216;5.616;2023-12-20T12:18:38;48.74;42.31;67.06;;
83034;Laerm;72848;52.216;5.616;2023-12-20T12:21:06;49.85;41.41;66.02;;
83034;Laerm;72848;52.216;5.616;2023-12-20T12:23:37;46.70;42.46;59.54;;
83034;Laerm;72848;52.216;5.616;2023-12-20T12:26:06;46.65;41.40;63.46;;
83034;Laerm;72848;52.216;5.616;2023-12-20T12:28:34;49.92;42.22;66.31;;
83034;Laerm;72848;52.216;5.616;2023-12-20T12:31:03;45.59;40.83;53.19;;
83034;Laerm;72848;52.216;5.616;2023-12-20T12:33:31;46.58;41.40;56.08;;
83034;Laerm;72848;52.216;5.616;2023-12-20T12:35:59;45.58;42.67;57.43;;
83034;Laerm;72848;52.216;5.616;2023-12-20T12:38:28;47.43;43.14;64.79;;
83034;Laerm;72848;52.216;5.616;2023-12-20T12:40:59;49.39;41.45;68.05;;
83034;Laerm;72848;52.216;5.616;2023-12-20T12:43:27;44.69;41.35;53.93;;
83034;Laerm;72848;52.216;5.616;2023-12-20T12:45:56;48.73;41.48;68.08;;
83034;Laerm;72848;52.216;5.616;2023-12-20T12:48:24;51.03;44.47;65.11;;
83034;Laerm;72848;52.216;5.616;2023-12-20T12:50:53;48.84;43.26;59.69;;
83034;Laerm;72848;52.216;5.616;2023-12-20T12:53:21;46.45;40.39;60.09;;
83034;Laerm;72848;52.216;5.616;2023-12-20T12:55:49;46.14;40.67;55.02;;
83034;Laerm;72848;52.216;5.616;2023-12-20T12:58:20;44.24;40.20;54.18;;
83034;Laerm;72848;52.216;5.616;2023-12-20T13:00:49;45.40;41.49;58.96;;
83034;Laerm;72848;52.216;5.616;2023-12-20T13:03:17;48.36;41.96;62.81;;
83034;Laerm;72848;52.216;5.616;2023-12-20T13:05:46;44.31;40.76;53.85;;
83034;Laerm;72848;52.216;5.616;2023-12-20T13:08:14;52.41;43.07;75.83;;
83034;Laerm;72848;52.216;5.616;2023-12-20T13:10:43;45.76;41.46;57.22;;
83034;Laerm;72848;52.216;5.616;2023-12-20T13:13:11;45.34;40.64;58.04;;
83034;Laerm;72848;52.216;5.616;2023-12-20T13:15:42;48.89;42.65;64.89;;
83034;Laerm;72848;52.216;5.616;2023-12-20T13:18:10;45.46;41.52;58.82;;
83034;Laerm;72848;52.216;5.616;2023-12-20T13:20:39;45.50;42.02;52.09;;
83034;Laerm;72848;52.216;5.616;2023-12-20T13:23:07;46.66;40.07;65.97;;
83034;Laerm;72848;52.216;5.616;2023-12-20T13:25:36;46.13;41.78;58.97;;
83034;Laerm;72848;52.216;5.616;2023-12-20T13:28:04;48.63;43.39;62.55;;
83034;Laerm;72848;52.216;5.616;2023-12-20T13:30:33;46.96;41.66;60.95;;
83034;Laerm;72848;52.216;5.616;2023-12-20T13:33:04;49.68;44.41;63.20;;
83034;Laerm;72848;52.216;5.616;2023-12-20T13:35:32;52.16;43.08;68.75;;
83034;Laerm;72848;52.216;5.616;2023-12-20T13:38:00;44.99;41.56;57.35;;
83034;Laerm;72848;52.216;5.616;2023-12-20T13:40:29;45.99;41.74;55.15;;
83034;Laerm;72848;52.216;5.616;2023-12-20T13:42:57;47.47;43.37;63.17;;
83034;Laerm;72848;52.216;5.616;2023-12-20T13:45:26;49.17;44.41;66.80;;
83034;Laerm;72848;52.216;5.616;2023-12-20T13:47:54;50.73;43.80;70.47;;
83034;Laerm;72848;52.216;5.616;2023-12-20T13:50:25;49.89;42.81;66.52;;
83034;Laerm;72848;52.216;5.616;2023-12-20T13:52:53;47.78;43.32;64.88;;